createdAt,value
2022-09-07T00:02:05.491Z,19.68
2022-09-07T00:04:32.226Z,19.64
2022-09-07T00:06:58.873Z,19.65
2022-09-07T00:09:25.656Z,19.67
2022-09-07T00:11:52.283Z,19.68
2022-09-07T00:14:18.907Z,19.65
2022-09-07T00:16:45.713Z,19.60
2022-09-07T00:19:12.414Z,19.56
2022-09-07T00:21:39.147Z,19.53
2022-09-07T00:24:06.102Z,19.50
2022-09-07T00:26:32.795Z,19.47
2022-09-07T00:29:01.709Z,19.43
2022-09-07T00:31:30.430Z,19.42
2022-09-07T00:33:59.808Z,19.39
2022-09-07T00:36:27.129Z,19.34
2022-09-07T00:38:54.113Z,19.34
2022-09-07T00:41:21.951Z,19.34
2022-09-07T00:43:57.433Z,19.35
2022-09-07T00:46:25.901Z,19.34
2022-09-07T00:48:59.596Z,19.36
2022-09-07T00:51:35.577Z,19.37
2022-09-07T00:54:07.893Z,19.39
2022-09-07T00:56:38.767Z,19.41
2022-09-07T00:59:06.561Z,19.43
2022-09-07T01:01:34.601Z,19.43
2022-09-07T01:04:02.858Z,19.49
2022-09-07T01:06:33.310Z,19.51
2022-09-07T01:09:04.454Z,19.52
2022-09-07T01:11:31.552Z,19.51
2022-09-07T01:13:58.614Z,19.48
2022-09-07T01:17:02.806Z,19.50
2022-09-07T01:19:49.377Z,19.45
2022-09-07T01:22:50.142Z,19.41
2022-09-07T01:25:33.498Z,19.35
2022-09-07T01:28:20.476Z,19.28
2022-09-07T01:30:56.067Z,19.22
2022-09-07T01:33:29.298Z,19.20
2022-09-07T01:36:20.280Z,19.18
2022-09-07T01:38:55.306Z,19.16
2022-09-07T01:41:24.993Z,19.16
2022-09-07T01:44:10.213Z,19.15
2022-09-07T01:46:42.916Z,19.13
2022-09-07T01:49:40.482Z,19.12
2022-09-07T01:52:36.708Z,19.10
2022-09-07T01:55:11.041Z,19.07
2022-09-07T01:57:47.202Z,19.07
2022-09-07T02:00:18.353Z,19.07
2022-09-07T02:02:50.099Z,19.06
2022-09-07T02:05:27.373Z,18.97
2022-09-07T02:08:10.492Z,19.00
2022-09-07T02:10:42.399Z,19.00
2022-09-07T02:13:22.709Z,19.01
2022-09-07T02:15:56.361Z,18.99
2022-09-07T02:18:25.851Z,18.98
2022-09-07T02:20:57.144Z,18.91
2022-09-07T02:23:28.334Z,18.91
2022-09-07T02:25:59.073Z,18.85
2022-09-07T02:28:34.621Z,18.78
2022-09-07T02:31:02.104Z,18.71
2022-09-07T02:33:29.690Z,18.74
2022-09-07T02:35:56.967Z,18.75
2022-09-07T02:38:25.514Z,18.78
2022-09-07T02:40:57.440Z,18.79
2022-09-07T02:43:25.927Z,18.83
2022-09-07T02:45:52.526Z,18.80
2022-09-07T02:48:48.777Z,18.81
2022-09-07T02:51:29.550Z,18.83
2022-09-07T02:54:14.290Z,18.82
2022-09-07T02:57:05.177Z,18.82
2022-09-07T03:00:02.248Z,18.79
2022-09-07T03:02:39.593Z,18.79
2022-09-07T03:05:17.951Z,18.78
2022-09-07T03:08:02.300Z,18.85
2022-09-07T03:10:30.004Z,18.83
2022-09-07T03:12:56.743Z,18.87
2022-09-07T03:15:26.609Z,18.90
2022-09-07T03:17:54.226Z,18.93
2022-09-07T03:20:22.989Z,18.88
2022-09-07T03:22:50.908Z,18.87
2022-09-07T03:25:18.058Z,18.83
2022-09-07T03:27:44.774Z,18.69
2022-09-07T03:30:12.875Z,18.79
2022-09-07T03:32:40.244Z,18.74
2022-09-07T03:35:08.279Z,18.78
2022-09-07T03:37:38.534Z,18.81
2022-09-07T03:40:08.161Z,18.84
2022-09-07T03:42:35.632Z,18.87
2022-09-07T03:45:02.244Z,18.91
2022-09-07T03:47:29.050Z,18.93
2022-09-07T03:49:55.724Z,18.96
2022-09-07T03:52:22.329Z,18.99
2022-09-07T03:54:48.938Z,19.02
2022-09-07T03:57:15.742Z,19.01
2022-09-07T03:59:42.341Z,19.03
2022-09-07T04:02:08.966Z,19.06
2022-09-07T04:04:35.607Z,19.07
2022-09-07T04:07:02.206Z,19.05
2022-09-07T04:09:28.782Z,19.00
2022-09-07T04:11:55.402Z,18.96
2022-09-07T04:14:22.191Z,18.92
2022-09-07T04:16:48.933Z,18.94
2022-09-07T04:19:15.567Z,18.96
2022-09-07T04:21:44.324Z,18.93
2022-09-07T04:24:10.926Z,18.92
2022-09-07T04:26:37.713Z,18.91
2022-09-07T04:29:05.354Z,18.93
2022-09-07T04:31:34.342Z,18.94
2022-09-07T04:34:01.894Z,18.97
2022-09-07T04:36:28.852Z,18.95
2022-09-07T04:38:57.737Z,18.96
2022-09-07T04:41:24.484Z,18.98
2022-09-07T04:43:57.338Z,18.92
2022-09-07T04:46:29.831Z,18.96
2022-09-07T04:49:07.264Z,18.97
2022-09-07T04:51:34.298Z,18.91
2022-09-07T04:54:02.831Z,18.88
2022-09-07T04:56:30.833Z,18.83
2022-09-07T04:58:57.696Z,18.79
2022-09-07T05:01:25.799Z,18.75
2022-09-07T05:03:52.580Z,18.73
2022-09-07T05:06:22.057Z,18.67
2022-09-07T05:08:53.733Z,18.68
2022-09-07T05:11:28.366Z,18.69
2022-09-07T05:14:00.758Z,18.70
2022-09-07T05:16:28.097Z,18.68
2022-09-07T05:19:02.764Z,18.76
2022-09-07T05:21:34.325Z,18.77
2022-09-07T05:24:01.912Z,18.80
2022-09-07T05:26:30.792Z,18.81
2022-09-07T05:31:49.394Z,18.81
2022-09-07T05:34:31.870Z,18.84
2022-09-07T05:36:59.326Z,18.84
2022-09-07T05:39:26.533Z,18.85
2022-09-07T05:41:53.782Z,18.84
2022-09-07T05:47:07.336Z,18.98
2022-09-07T05:49:34.101Z,19.01
2022-09-07T05:52:00.683Z,19.06
2022-09-07T05:54:27.316Z,19.11
2022-09-07T05:56:53.884Z,19.17
2022-09-07T05:59:20.505Z,19.23
2022-09-07T06:01:47.218Z,19.29
2022-09-07T06:04:13.844Z,19.33
2022-09-07T06:06:40.494Z,19.35
2022-09-07T06:09:07.823Z,19.35
2022-09-07T06:11:34.456Z,19.39
2022-09-07T06:14:01.149Z,19.37
2022-09-07T06:16:27.866Z,19.45
2022-09-07T06:18:54.630Z,19.51
2022-09-07T06:21:23.385Z,19.58
2022-09-07T06:23:50.908Z,19.63
2022-09-07T06:26:19.737Z,19.71
2022-09-07T06:28:51.417Z,19.78
2022-09-07T06:31:21.579Z,19.85
2022-09-07T06:33:49.145Z,19.90
2022-09-07T06:36:16.760Z,19.95
2022-09-07T06:38:44.071Z,19.98
2022-09-07T06:44:17.480Z,20.15
2022-09-07T06:49:30.658Z,20.34
2022-09-07T06:51:57.238Z,20.44
2022-09-07T06:57:11.514Z,20.66
2022-09-07T06:59:38.766Z,20.84
2022-09-07T07:02:06.455Z,20.99
2022-09-07T07:04:39.496Z,21.00
2022-09-07T07:07:10.790Z,21.02
2022-09-07T07:09:37.799Z,21.01
2022-09-07T07:12:04.519Z,21.00
2022-09-07T07:14:34.301Z,21.03
2022-09-07T07:17:02.171Z,20.99
2022-09-07T07:19:28.803Z,21.02
2022-09-07T07:24:41.993Z,21.00
2022-09-07T07:27:08.583Z,21.10
2022-09-07T07:29:35.166Z,21.11
2022-09-07T07:32:01.999Z,21.10
2022-09-07T07:34:29.173Z,21.12
2022-09-07T07:36:55.775Z,21.17
2022-09-07T07:42:09.277Z,21.20
2022-09-07T07:44:35.886Z,21.15
2022-09-07T07:47:02.855Z,21.13
2022-09-07T07:49:29.485Z,21.12
2022-09-07T07:54:43.420Z,21.16
2022-09-07T07:57:10.399Z,21.10
2022-09-07T07:59:37.257Z,21.05
2022-09-07T08:02:08.764Z,20.99
2022-09-07T08:04:36.259Z,20.91
2022-09-07T08:07:09.683Z,20.88
2022-09-07T08:09:44.800Z,20.94
2022-09-07T08:12:13.994Z,21.04
2022-09-07T08:14:41.700Z,21.20
2022-09-07T08:17:12.895Z,21.33
2022-09-07T08:19:39.750Z,21.43
2022-09-07T08:22:07.451Z,21.54
2022-09-07T08:24:34.194Z,21.71
2022-09-07T08:27:00.973Z,21.85
2022-09-07T08:29:27.605Z,22.00
2022-09-07T08:31:54.602Z,22.09
2022-09-07T08:34:21.940Z,22.22
2022-09-07T08:36:48.757Z,22.35
2022-09-07T08:39:15.359Z,22.45
2022-09-07T08:42:03.350Z,22.52
2022-09-07T08:44:51.626Z,22.56
2022-09-07T08:47:37.484Z,22.59
2022-09-07T08:50:17.938Z,22.78
2022-09-07T08:52:52.486Z,22.97
2022-09-07T08:55:47.215Z,23.02
2022-09-07T08:58:48.350Z,22.98
2022-09-07T09:01:33.251Z,22.80
2022-09-07T09:04:17.268Z,22.55
2022-09-07T09:07:05.415Z,22.54
2022-09-07T09:09:41.528Z,22.71
2022-09-07T09:12:33.299Z,22.90
2022-09-07T09:15:13.688Z,23.10
2022-09-07T09:17:55.204Z,23.27
2022-09-07T09:20:40.376Z,23.42
2022-09-07T09:23:13.175Z,23.55
2022-09-07T09:25:47.797Z,23.74
2022-09-07T09:28:14.456Z,23.93
2022-09-07T09:30:41.977Z,24.11
2022-09-07T09:33:15.494Z,24.23
2022-09-07T09:35:44.221Z,24.34
2022-09-07T09:38:32.893Z,24.48
2022-09-07T09:41:04.255Z,24.64
2022-09-07T09:43:54.570Z,24.92
2022-09-07T09:46:24.072Z,24.99
2022-09-07T09:48:54.683Z,24.88
2022-09-07T09:54:29.825Z,24.77
2022-09-07T09:56:56.752Z,24.84
2022-09-07T10:05:27.771Z,25.56
2022-09-07T10:07:54.678Z,25.53
2022-09-07T10:10:21.381Z,25.26
2022-09-07T10:12:54.150Z,25.11
2022-09-07T10:15:39.964Z,24.84
2022-09-07T10:18:09.665Z,24.65
2022-09-07T10:20:38.079Z,24.55
2022-09-07T10:23:06.565Z,24.42
2022-09-07T10:25:41.603Z,24.24
2022-09-07T10:28:14.396Z,24.19
2022-09-07T10:31:15.785Z,24.12
2022-09-07T10:36:55.510Z,24.46
2022-09-07T10:39:43.769Z,24.58
2022-09-07T10:42:25.546Z,24.52
2022-09-07T10:45:13.926Z,24.52
2022-09-07T10:48:05.380Z,24.51
2022-09-07T10:50:48.433Z,24.53
2022-09-07T10:53:40.062Z,24.69
2022-09-07T10:56:28.027Z,25.03
2022-09-07T10:59:06.642Z,25.41
2022-09-07T11:02:02.940Z,25.98
2022-09-07T11:04:33.985Z,26.38
2022-09-07T11:07:38.389Z,26.56
2022-09-07T11:10:16.963Z,26.08
2022-09-07T11:12:45.221Z,25.70
2022-09-07T11:15:25.124Z,25.41
2022-09-07T11:18:00.916Z,25.10
2022-09-07T11:20:37.518Z,24.91
2022-09-07T11:23:41.421Z,24.70
2022-09-07T11:26:38.869Z,24.58
2022-09-07T11:29:29.840Z,24.86
2022-09-07T11:32:03.287Z,25.29
2022-09-07T11:35:03.922Z,25.56
2022-09-07T11:37:49.159Z,26.18
2022-09-07T11:40:21.517Z,26.70
2022-09-07T11:42:59.518Z,26.92
2022-09-07T11:45:39.042Z,27.09
2022-09-07T11:48:30.870Z,27.58
2022-09-07T11:51:07.691Z,28.02
2022-09-07T11:53:39.507Z,28.21
2022-09-07T11:56:21.918Z,28.09
2022-09-07T11:59:10.362Z,28.14
2022-09-07T12:01:49.595Z,27.90
2022-09-07T12:04:47.099Z,28.12
2022-09-07T12:07:32.107Z,28.28
2022-09-07T12:10:20.451Z,28.46
2022-09-07T12:12:52.789Z,28.65
2022-09-07T12:15:46.578Z,28.58
2022-09-07T12:18:16.283Z,28.57
2022-09-07T12:20:48.043Z,28.45
2022-09-07T12:23:17.635Z,28.59
2022-09-07T12:25:46.592Z,28.84
2022-09-07T12:28:24.007Z,29.00
2022-09-07T12:30:56.656Z,29.05
2022-09-07T12:33:27.192Z,29.00
2022-09-07T12:35:56.950Z,29.14
2022-09-07T12:38:33.964Z,29.61
2022-09-07T12:41:02.870Z,30.06
2022-09-07T12:43:32.127Z,30.24
2022-09-07T12:46:00.854Z,30.42
2022-09-07T12:48:36.654Z,30.53
2022-09-07T12:51:09.577Z,30.67
2022-09-07T12:53:56.950Z,30.27
2022-09-07T13:00:02.996Z,28.86
2022-09-07T13:02:44.753Z,28.69
2022-09-07T13:05:39.182Z,28.84
2022-09-07T13:08:34.210Z,28.88
2022-09-07T13:11:30.139Z,28.76
2022-09-07T13:14:02.957Z,28.73
2022-09-07T13:17:15.968Z,28.50
2022-09-07T13:20:03.938Z,28.76
2022-09-07T13:22:30.483Z,29.43
2022-09-07T13:25:24.877Z,29.99
2022-09-07T13:27:58.509Z,30.13
2022-09-07T13:30:44.291Z,29.88
2022-09-07T13:33:43.097Z,29.61
2022-09-07T13:36:39.400Z,29.22
2022-09-07T13:39:15.919Z,28.79
2022-09-07T13:41:54.400Z,28.47
2022-09-07T13:44:29.951Z,28.11
2022-09-07T13:47:13.219Z,27.84
2022-09-07T13:49:47.066Z,27.80
2022-09-07T13:52:31.507Z,27.98
2022-09-07T13:55:25.972Z,28.08
2022-09-07T13:58:14.348Z,28.35
2022-09-07T14:00:55.721Z,28.25
2022-09-07T14:03:25.834Z,28.03
2022-09-07T14:06:14.309Z,27.78
2022-09-07T14:08:42.268Z,27.65
2022-09-07T14:11:23.669Z,28.13
2022-09-07T14:14:13.743Z,28.76
2022-09-07T14:16:42.916Z,29.28
2022-09-07T14:19:18.955Z,29.71
2022-09-07T14:21:55.400Z,30.14
2022-09-07T14:24:29.702Z,30.42
2022-09-07T14:26:56.646Z,30.54
2022-09-07T14:29:26.573Z,30.67
2022-09-07T14:31:54.405Z,30.95
2022-09-07T14:34:24.651Z,31.07
2022-09-07T14:36:52.413Z,31.14
2022-09-07T14:39:22.324Z,31.20
2022-09-07T14:41:49.785Z,31.21
2022-09-07T14:44:33.016Z,31.38
2022-09-07T14:47:04.608Z,31.47
2022-09-07T14:49:31.467Z,31.48
2022-09-07T14:51:58.415Z,31.39
2022-09-07T14:54:31.740Z,31.54
2022-09-07T14:57:06.476Z,31.36
2022-09-07T14:59:36.757Z,31.21
2022-09-07T15:02:18.414Z,31.17
2022-09-07T15:04:50.495Z,31.20
2022-09-07T15:07:38.587Z,31.33
2022-09-07T15:10:23.681Z,31.58
2022-09-07T15:12:55.638Z,31.63
2022-09-07T15:15:26.749Z,31.58
2022-09-07T15:18:00.796Z,31.50
2022-09-07T15:20:44.038Z,31.46
2022-09-07T15:23:16.894Z,31.46
2022-09-07T15:25:49.881Z,31.42
2022-09-07T15:34:02.062Z,30.83
2022-09-07T15:36:28.766Z,30.66
2022-09-07T15:38:59.715Z,30.40
2022-09-07T15:41:27.750Z,30.13
2022-09-07T15:43:54.529Z,29.73
2022-09-07T15:46:21.609Z,29.32
2022-09-07T15:48:55.481Z,29.17
2022-09-07T15:54:13.185Z,28.65
2022-09-07T15:56:42.364Z,28.42
2022-09-07T15:59:10.720Z,28.20
2022-09-07T16:01:54.801Z,27.95
2022-09-07T16:04:24.023Z,27.78
2022-09-07T16:06:50.871Z,27.63
2022-09-07T16:09:17.873Z,27.51
2022-09-07T16:11:50.029Z,27.43
2022-09-07T16:14:17.388Z,27.31
2022-09-07T16:19:34.575Z,26.95
2022-09-07T16:22:01.450Z,26.85
2022-09-07T16:24:28.386Z,26.84
2022-09-07T16:26:55.374Z,26.82
2022-09-07T16:29:21.915Z,26.78
2022-09-07T16:34:35.143Z,27.10
2022-09-07T16:37:02.023Z,27.28
2022-09-07T16:39:32.126Z,27.31
2022-09-07T16:42:00.096Z,27.28
2022-09-07T16:44:26.780Z,27.25
2022-09-07T16:46:53.447Z,27.14
2022-09-07T16:49:20.092Z,27.07
2022-09-07T16:51:46.786Z,26.99
2022-09-07T16:54:13.882Z,26.85
2022-09-07T16:56:40.476Z,27.02
2022-09-07T16:59:09.667Z,27.07
2022-09-07T17:01:38.092Z,27.06
2022-09-07T17:04:09.870Z,27.68
2022-09-07T17:06:37.598Z,27.80
2022-09-07T17:09:04.446Z,27.27
2022-09-07T17:11:33.758Z,26.90
2022-09-07T17:14:01.241Z,26.60
2022-09-07T17:16:33.754Z,26.26
2022-09-07T17:21:51.840Z,25.85
2022-09-07T17:24:19.682Z,25.71
2022-09-07T17:26:46.736Z,25.54
2022-09-07T17:29:13.539Z,25.44
2022-09-07T17:34:27.077Z,25.23
2022-09-07T17:36:53.630Z,25.13
2022-09-07T17:39:20.351Z,25.02
2022-09-07T17:41:52.758Z,24.97
2022-09-07T17:44:19.570Z,24.86
2022-09-07T17:46:46.218Z,24.74
2022-09-07T17:49:16.148Z,24.61
2022-09-07T17:51:43.326Z,24.46
2022-09-07T17:54:13.797Z,24.32
2022-09-07T17:56:41.648Z,24.18
2022-09-07T18:01:56.229Z,24.12
2022-09-07T18:04:23.557Z,24.08
2022-09-07T18:06:50.418Z,24.01
2022-09-07T18:09:17.335Z,23.92
2022-09-07T18:11:45.772Z,23.83
2022-09-07T18:14:14.488Z,23.76
2022-09-07T18:16:42.295Z,23.69
2022-09-07T18:19:09.029Z,23.64
2022-09-07T18:21:37.671Z,23.61
2022-09-07T18:24:13.595Z,23.56
2022-09-07T18:26:41.069Z,23.48
2022-09-07T18:29:22.260Z,23.41
2022-09-07T18:31:55.123Z,23.33
2022-09-07T18:34:22.236Z,23.29
2022-09-07T18:36:48.847Z,23.25
2022-09-07T18:39:15.506Z,23.23
2022-09-07T18:41:42.224Z,23.18
2022-09-07T18:46:55.889Z,23.08
2022-09-07T18:49:22.657Z,23.02
2022-09-07T18:54:35.761Z,22.97
2022-09-07T18:57:02.372Z,22.89
2022-09-07T18:59:29.818Z,22.80
2022-09-07T19:02:01.489Z,22.75
2022-09-07T19:07:17.795Z,22.69
2022-09-07T19:09:44.365Z,22.67
2022-09-07T19:12:10.980Z,22.66
2022-09-07T19:14:37.652Z,22.63
2022-09-07T19:17:04.299Z,22.55
2022-09-07T19:19:31.022Z,22.47
2022-09-07T19:21:58.296Z,22.42
2022-09-07T19:24:25.763Z,22.38
2022-09-07T19:26:55.699Z,22.39
2022-09-07T19:29:24.972Z,22.34
2022-09-07T19:32:06.747Z,22.24
2022-09-07T19:34:35.803Z,22.12
2022-09-07T19:37:04.149Z,22.05
2022-09-07T19:39:30.791Z,21.98
2022-09-07T19:41:57.445Z,21.85
2022-09-07T19:44:24.012Z,21.75
2022-09-07T19:46:50.924Z,21.68
2022-09-07T19:49:17.704Z,21.71
2022-09-07T19:51:44.463Z,21.75
2022-09-07T19:54:12.375Z,21.76
2022-09-07T19:56:41.250Z,21.74
2022-09-07T19:59:08.894Z,21.69
2022-09-07T20:01:36.255Z,21.72
2022-09-07T20:04:06.186Z,21.67
2022-09-07T20:06:34.506Z,21.67
2022-09-07T20:09:01.803Z,21.62
2022-09-07T20:11:28.836Z,21.48
2022-09-07T20:13:57.089Z,21.42
2022-09-07T20:16:24.990Z,21.38
2022-09-07T20:18:51.836Z,21.34
2022-09-07T20:21:21.201Z,21.32
2022-09-07T20:23:48.629Z,21.28
2022-09-07T20:26:18.151Z,21.27
2022-09-07T20:28:45.244Z,21.23
2022-09-07T20:31:16.486Z,21.21
2022-09-07T20:33:44.866Z,21.20
2022-09-07T20:36:14.486Z,21.09
2022-09-07T20:38:41.907Z,21.10
2022-09-07T20:41:13.883Z,21.11
2022-09-07T20:43:40.481Z,21.13
2022-09-07T20:46:09.655Z,21.12
2022-09-07T20:48:39.800Z,21.11
2022-09-07T20:51:09.570Z,21.05
2022-09-07T20:53:37.269Z,20.99
2022-09-07T20:56:15.311Z,20.91
2022-09-07T20:58:43.377Z,20.83
2022-09-07T21:01:15.145Z,20.73
2022-09-07T21:03:49.693Z,20.71
2022-09-07T21:06:16.870Z,20.71
2022-09-07T21:08:45.134Z,20.72
2022-09-07T21:11:21.611Z,20.64
2022-09-07T21:13:55.108Z,20.66
2022-09-07T21:16:21.744Z,20.61
2022-09-07T21:18:53.210Z,20.57
2022-09-07T21:21:20.761Z,20.52
2022-09-07T21:23:47.971Z,20.46
2022-09-07T21:26:19.540Z,20.45
2022-09-07T21:28:46.094Z,20.44
2022-09-07T21:31:12.738Z,20.46
2022-09-07T21:33:39.324Z,20.42
2022-09-07T21:36:12.174Z,20.33
2022-09-07T21:38:41.283Z,20.23
2022-09-07T21:41:13.135Z,20.21
2022-09-07T21:43:39.829Z,20.17
2022-09-07T21:46:13.805Z,20.14
2022-09-07T21:48:40.586Z,20.02
2022-09-07T21:51:07.243Z,19.83
2022-09-07T21:53:34.260Z,19.60
2022-09-07T21:56:03.079Z,19.42
2022-09-07T21:58:30.524Z,19.32
2022-09-07T22:00:58.255Z,19.28
2022-09-07T22:03:25.523Z,19.18
2022-09-07T22:05:52.403Z,19.14
2022-09-07T22:08:19.365Z,19.11
2022-09-07T22:10:46.979Z,19.07
2022-09-07T22:13:13.554Z,19.05
2022-09-07T22:15:40.992Z,18.94
2022-09-07T22:18:11.377Z,18.88
2022-09-07T22:20:38.147Z,18.74
2022-09-07T22:23:07.649Z,18.68
2022-09-07T22:25:34.930Z,18.57
2022-09-07T22:28:01.833Z,18.47
2022-09-07T22:30:28.401Z,18.38
2022-09-07T22:32:55.088Z,18.31
2022-09-07T22:35:23.931Z,18.25
2022-09-07T22:37:50.471Z,18.24
2022-09-07T22:40:17.157Z,18.22
2022-09-07T22:42:43.787Z,18.26
2022-09-07T22:45:10.662Z,18.26
2022-09-07T22:47:37.243Z,18.22
2022-09-07T22:50:04.104Z,18.16
2022-09-07T22:52:30.876Z,18.12
2022-09-07T22:54:57.475Z,18.23
2022-09-07T22:57:24.049Z,18.28
2022-09-07T22:59:51.675Z,18.35
2022-09-07T23:02:18.217Z,18.39
2022-09-07T23:04:44.951Z,18.29
2022-09-07T23:07:11.651Z,18.18
2022-09-07T23:09:38.235Z,18.18
2022-09-07T23:12:04.924Z,18.19
2022-09-07T23:14:31.546Z,18.20
2022-09-07T23:16:58.653Z,18.29
2022-09-07T23:19:25.345Z,18.36
2022-09-07T23:21:52.057Z,18.44
2022-09-07T23:24:19.334Z,18.48
2022-09-07T23:26:46.945Z,18.52
2022-09-07T23:29:14.927Z,18.54
2022-09-07T23:31:42.071Z,18.56
2022-09-07T23:34:09.553Z,18.55
2022-09-07T23:36:37.252Z,18.58
2022-09-07T23:39:03.953Z,18.59
2022-09-07T23:41:30.606Z,18.57
2022-09-07T23:43:57.679Z,18.54
2022-09-07T23:46:24.620Z,18.48
2022-09-07T23:48:51.345Z,18.45
2022-09-07T23:51:23.446Z,18.41
2022-09-07T23:53:51.010Z,18.37
2022-09-07T23:56:17.698Z,18.34
2022-09-07T23:58:44.364Z,18.27
